createdAt,value
2018-02-20T00:00:30.553Z,101270.03
2018-02-20T00:02:59.308Z,101266.52
2018-02-20T00:05:27.662Z,101267.03
2018-02-20T00:07:56.053Z,101264.34
2018-02-20T00:10:24.424Z,101270.39
2018-02-20T00:12:52.823Z,101272.81
2018-02-20T00:15:21.309Z,101273.39
2018-02-20T00:17:49.676Z,101270.41
2018-02-20T00:20:18.056Z,101267.59
2018-02-20T00:22:46.428Z,101270.67
2018-02-20T00:25:14.820Z,101265.95
2018-02-20T00:27:43.168Z,101268.84
2018-02-20T00:30:11.552Z,101271.05
2018-02-20T00:32:39.959Z,101273.05
2018-02-20T00:35:08.326Z,101269.12
2018-02-20T00:37:36.711Z,101269.86
2018-02-20T00:40:05.126Z,101273.17
2018-02-20T00:42:33.497Z,101275.91
2018-02-20T00:45:02.053Z,101267.36
2018-02-20T00:47:30.439Z,101272.48
2018-02-20T00:49:59.369Z,101271.73
2018-02-20T00:52:28.216Z,101270.33
2018-02-20T00:54:56.586Z,101266.21
2018-02-20T00:57:24.964Z,101274.23
2018-02-20T00:59:53.343Z,101274.64
2018-02-20T01:02:21.706Z,101271.05
2018-02-20T01:04:50.105Z,101273.94
2018-02-20T01:07:18.481Z,101269.55
2018-02-20T01:09:46.838Z,101271.23
2018-02-20T01:12:15.184Z,101272.61
2018-02-20T01:14:43.936Z,101268.75
2018-02-20T01:17:12.319Z,101269.70
2018-02-20T01:19:40.673Z,101264.41
2018-02-20T01:22:09.047Z,101264.00
2018-02-20T01:24:37.416Z,101269.00
2018-02-20T01:27:05.780Z,101263.31
2018-02-20T01:29:34.168Z,101269.87
2018-02-20T01:32:02.538Z,101268.70
2018-02-20T01:34:31.549Z,101264.50
2018-02-20T01:36:59.923Z,101261.55
2018-02-20T01:39:28.287Z,101270.83
2018-02-20T01:41:56.663Z,101267.22
2018-02-20T01:44:25.453Z,101264.30
2018-02-20T01:46:54.216Z,101272.88
2018-02-20T01:49:22.564Z,101267.73
2018-02-20T01:51:50.948Z,101269.39
2018-02-20T01:54:19.341Z,101269.33
2018-02-20T01:56:47.810Z,101274.84
2018-02-20T01:59:16.177Z,101270.69
2018-02-20T02:01:44.556Z,101269.88
2018-02-20T02:04:12.945Z,101272.38
2018-02-20T02:06:41.328Z,101272.88
2018-02-20T02:09:09.690Z,101269.14
2018-02-20T02:11:38.072Z,101269.82
2018-02-20T02:14:06.474Z,101268.05
2018-02-20T02:16:34.940Z,101264.75
2018-02-20T02:19:03.292Z,101266.80
2018-02-20T02:21:31.652Z,101269.34
2018-02-20T02:24:00.008Z,101271.66
2018-02-20T02:26:28.942Z,101272.37
2018-02-20T02:28:57.305Z,101253.85
2018-02-20T02:31:25.663Z,101257.25
2018-02-20T02:33:54.508Z,101254.35
2018-02-20T02:36:22.881Z,101258.55
2018-02-20T02:38:51.248Z,101254.67
2018-02-20T02:41:19.618Z,101250.42
2018-02-20T02:43:47.997Z,101259.06
2018-02-20T02:46:16.438Z,101261.08
2018-02-20T02:48:44.889Z,101259.97
2018-02-20T02:51:13.255Z,101257.20
2018-02-20T02:53:41.620Z,101261.84
2018-02-20T02:56:09.999Z,101258.12
2018-02-20T02:58:38.350Z,101261.41
2018-02-20T03:01:07.110Z,101260.67
2018-02-20T03:03:35.471Z,101256.64
2018-02-20T03:06:03.926Z,101259.27
2018-02-20T03:08:32.329Z,101259.57
2018-02-20T03:11:00.687Z,101252.67
2018-02-20T03:13:29.091Z,101251.67
2018-02-20T03:15:57.454Z,101249.45
2018-02-20T03:18:25.804Z,101253.87
2018-02-20T03:20:54.262Z,101252.65
2018-02-20T03:23:23.022Z,101245.59
2018-02-20T03:25:52.202Z,101245.11
2018-02-20T03:28:20.587Z,101257.94
2018-02-20T03:30:48.950Z,101253.87
2018-02-20T03:33:17.313Z,101258.27
2018-02-20T03:35:45.716Z,101259.66
2018-02-20T03:38:14.073Z,101256.95
2018-02-20T03:40:42.446Z,101253.50
2018-02-20T03:43:10.821Z,101253.64
2018-02-20T03:45:39.199Z,101253.78
2018-02-20T03:48:07.569Z,101253.30
2018-02-20T03:50:36.332Z,101254.05
2018-02-20T03:53:04.780Z,101253.70
2018-02-20T03:55:33.188Z,101253.59
2018-02-20T03:58:01.541Z,101262.24
2018-02-20T04:00:30.021Z,101265.03
2018-02-20T04:02:58.389Z,101250.09
2018-02-20T04:05:26.778Z,101262.60
2018-02-20T04:07:55.140Z,101253.30
2018-02-20T04:10:23.496Z,101257.03
2018-02-20T04:12:51.963Z,101254.72
2018-02-20T04:15:20.720Z,101259.70
2018-02-20T04:17:49.081Z,101263.13
2018-02-20T04:20:17.435Z,101261.28
2018-02-20T04:22:45.787Z,101254.91
2018-02-20T04:25:14.634Z,101255.68
2018-02-20T04:27:43.035Z,101255.27
2018-02-20T04:30:11.405Z,101255.44
2018-02-20T04:32:39.777Z,101254.66
2018-02-20T04:35:08.164Z,101256.69
2018-02-20T04:37:36.531Z,101249.78
2018-02-20T04:40:05.213Z,101248.25
2018-02-20T04:42:33.560Z,101253.27
2018-02-20T04:45:01.936Z,101252.78
2018-02-20T04:47:30.349Z,101261.14
2018-02-20T04:49:58.716Z,101257.63
2018-02-20T04:52:27.067Z,101268.55
2018-02-20T04:54:55.555Z,101267.70
2018-02-20T04:57:23.908Z,101262.05
2018-02-20T04:59:52.746Z,101272.79
2018-02-20T05:02:21.130Z,101260.42
2018-02-20T05:04:49.538Z,101269.43
2018-02-20T05:07:18.028Z,101265.03
2018-02-20T05:09:46.921Z,101279.70
2018-02-20T05:12:15.775Z,101263.48
2018-02-20T05:14:44.132Z,101266.30
2018-02-20T05:17:12.489Z,101272.09
2018-02-20T05:19:40.864Z,101268.06
2018-02-20T05:22:09.628Z,101269.20
2018-02-20T05:24:38.007Z,101275.81
2018-02-20T05:27:06.490Z,101270.80
2018-02-20T05:29:35.764Z,101277.20
2018-02-20T05:32:04.120Z,101277.67
2018-02-20T05:34:32.489Z,101285.20
2018-02-20T05:37:00.895Z,101279.55
2018-02-20T05:39:29.287Z,101286.28
2018-02-20T05:41:57.641Z,101290.89
2018-02-20T05:44:26.012Z,101276.06
2018-02-20T05:46:54.373Z,101280.80
2018-02-20T05:49:22.796Z,101281.09
2018-02-20T05:51:51.196Z,101292.39
2018-02-20T05:54:19.571Z,101292.77
2018-02-20T05:56:47.940Z,101286.45
2018-02-20T05:59:16.413Z,101286.12
2018-02-20T06:01:44.811Z,101286.97
2018-02-20T06:04:13.174Z,101284.69
2018-02-20T06:06:41.562Z,101288.38
2018-02-20T06:09:09.936Z,101286.83
2018-02-20T06:11:38.290Z,101287.61
2018-02-20T06:14:06.664Z,101289.66
2018-02-20T06:16:35.061Z,101294.47
2018-02-20T06:19:03.424Z,101297.17
2018-02-20T06:21:31.777Z,101292.77
2018-02-20T06:24:00.191Z,101307.36
2018-02-20T06:26:28.575Z,101294.15
2018-02-20T06:28:56.937Z,101290.59
2018-02-20T06:31:25.296Z,101294.94
2018-02-20T06:33:53.667Z,101294.87
2018-02-20T06:36:22.093Z,101297.20
2018-02-20T06:38:50.543Z,101291.48
2018-02-20T06:41:19.368Z,101292.44
2018-02-20T06:43:47.748Z,101294.91
2018-02-20T06:46:16.142Z,101302.63
2018-02-20T06:48:44.619Z,101293.43
2018-02-20T06:51:13.102Z,101295.84
2018-02-20T06:53:41.476Z,101298.18
2018-02-20T06:56:09.834Z,101293.51
2018-02-20T06:58:38.203Z,101296.64
2018-02-20T07:01:06.692Z,101302.84
2018-02-20T07:03:35.054Z,101294.24
2018-02-20T07:06:03.556Z,101307.02
2018-02-20T07:08:31.933Z,101309.09
2018-02-20T07:11:00.312Z,101303.02
2018-02-20T07:13:28.687Z,101304.05
2018-02-20T07:15:57.044Z,101310.50
2018-02-20T07:18:25.403Z,101307.42
2018-02-20T07:20:54.216Z,101303.70
2018-02-20T07:23:22.572Z,101307.58
2018-02-20T07:25:50.948Z,101306.68
2018-02-20T07:28:19.744Z,101306.26
2018-02-20T07:30:48.172Z,101312.73
2018-02-20T07:33:16.822Z,101313.12
2018-02-20T07:35:45.166Z,101310.97
2018-02-20T07:38:13.521Z,101316.23
2018-02-20T07:40:41.872Z,101311.68
2018-02-20T07:43:10.278Z,101313.02
2018-02-20T07:45:38.644Z,101316.36
2018-02-20T07:48:07.015Z,101310.83
2018-02-20T07:50:35.363Z,101318.39
2018-02-20T07:53:03.740Z,101313.09
2018-02-20T07:55:32.089Z,101316.86
2018-02-20T07:58:00.474Z,101316.09
2018-02-20T08:00:29.240Z,101315.41
2018-02-20T08:02:57.616Z,101314.92
2018-02-20T08:05:26.039Z,101332.42
2018-02-20T08:07:54.404Z,101326.83
2018-02-20T08:10:23.154Z,101322.12
2018-02-20T08:12:51.520Z,101322.92
2018-02-20T08:15:19.867Z,101325.88
2018-02-20T08:17:48.254Z,101324.84
2018-02-20T08:20:16.628Z,101322.12
2018-02-20T08:22:45.050Z,101323.28
2018-02-20T08:25:13.420Z,101321.96
2018-02-20T08:27:41.792Z,101325.02
2018-02-20T08:30:10.150Z,101316.78
2018-02-20T08:32:38.548Z,101342.11
2018-02-20T08:35:06.896Z,101332.88
2018-02-20T08:37:35.256Z,101337.98
2018-02-20T08:40:04.117Z,101342.81
2018-02-20T08:42:32.512Z,101327.03
2018-02-20T08:45:00.851Z,101333.71
2018-02-20T08:47:29.216Z,101317.72
2018-02-20T08:49:57.584Z,101324.34
2018-02-20T08:52:25.963Z,101321.15
2018-02-20T08:54:54.313Z,101313.41
2018-02-20T08:57:23.077Z,101322.58
2018-02-20T08:59:51.435Z,101321.17
2018-02-20T09:02:19.943Z,101324.83
2018-02-20T09:04:48.404Z,101317.44
2018-02-20T09:07:16.789Z,101312.67
2018-02-20T09:09:45.153Z,101309.62
2018-02-20T09:12:13.548Z,101310.69
2018-02-20T09:14:41.912Z,101311.81
2018-02-20T09:17:10.291Z,101314.20
2018-02-20T09:19:38.657Z,101308.21
2018-02-20T09:22:07.035Z,101305.08
2018-02-20T09:24:35.432Z,101316.86
2018-02-20T09:27:04.250Z,101306.03
2018-02-20T09:29:32.631Z,101304.08
2018-02-20T09:32:01.000Z,101303.47
2018-02-20T09:34:29.468Z,101309.45
2018-02-20T09:36:57.838Z,101306.94
2018-02-20T09:39:26.214Z,101310.33
2018-02-20T09:41:54.570Z,101328.16
2018-02-20T09:44:22.953Z,101320.14
2018-02-20T09:46:51.309Z,101312.58
2018-02-20T09:49:20.155Z,101315.69
2018-02-20T09:51:48.533Z,101316.77
2018-02-20T09:54:17.012Z,101310.40
2018-02-20T09:56:45.380Z,101321.00
2018-02-20T09:59:13.758Z,101311.10
2018-02-20T10:01:42.148Z,101316.59
2018-02-20T10:04:10.514Z,101309.94
2018-02-20T10:06:38.878Z,101316.41
2018-02-20T10:09:07.286Z,101313.56
2018-02-20T10:11:35.645Z,101315.39
2018-02-20T10:14:04.053Z,101315.75
2018-02-20T10:16:32.429Z,101319.90
2018-02-20T10:19:00.800Z,101316.13
2018-02-20T10:21:29.159Z,101319.70
2018-02-20T10:23:57.517Z,101322.09
2018-02-20T10:26:25.937Z,101317.13
2018-02-20T10:28:54.315Z,101309.81
2018-02-20T10:31:22.678Z,101313.52
2018-02-20T10:33:51.075Z,101307.24
2018-02-20T10:36:19.433Z,101312.50
2018-02-20T10:38:47.813Z,101316.53
2018-02-20T10:41:16.188Z,101316.09
2018-02-20T10:43:44.549Z,101310.04
2018-02-20T10:46:12.932Z,101306.95
2018-02-20T10:48:41.364Z,101305.63
2018-02-20T10:51:09.730Z,101300.33
2018-02-20T10:53:38.219Z,101307.58
2018-02-20T10:56:06.656Z,101298.90
2018-02-20T10:58:35.057Z,101300.53
2018-02-20T11:01:03.453Z,101305.11
2018-02-20T11:03:31.944Z,101298.25
2018-02-20T11:06:00.419Z,101294.37
2018-02-20T11:08:28.798Z,101295.22
2018-02-20T11:10:57.259Z,101292.03
2018-02-20T11:13:25.629Z,101305.28
2018-02-20T11:15:54.012Z,101296.42
2018-02-20T11:18:22.381Z,101285.77
2018-02-20T11:20:50.759Z,101300.48
2018-02-20T11:23:19.188Z,101298.28
2018-02-20T11:25:47.637Z,101302.63
2018-02-20T11:28:16.008Z,101305.78
2018-02-20T11:30:44.470Z,101310.94
2018-02-20T11:33:12.849Z,101303.80
2018-02-20T11:35:41.220Z,101294.29
2018-02-20T11:38:09.586Z,101300.66
2018-02-20T11:40:38.425Z,101293.17
2018-02-20T11:43:06.800Z,101292.75
2018-02-20T11:45:35.169Z,101291.33
2018-02-20T11:48:03.540Z,101292.86
2018-02-20T11:50:31.941Z,101283.09
2018-02-20T11:53:00.296Z,101288.77
2018-02-20T11:55:28.649Z,101303.45
2018-02-20T11:57:57.068Z,101288.88
2018-02-20T12:00:25.413Z,101290.00
2018-02-20T12:02:53.778Z,101285.94
2018-02-20T12:05:22.132Z,101290.22
2018-02-20T12:07:50.584Z,101286.38
2018-02-20T12:10:18.929Z,101295.15
2018-02-20T12:12:47.288Z,101293.08
2018-02-20T12:15:16.045Z,101286.86
2018-02-20T12:17:44.487Z,101294.13
2018-02-20T12:20:12.881Z,101289.89
2018-02-20T12:22:41.234Z,101295.25
2018-02-20T12:25:09.611Z,101295.09
2018-02-20T12:27:37.970Z,101297.81
2018-02-20T12:30:06.813Z,101294.07
2018-02-20T12:32:35.176Z,101291.69
2018-02-20T12:35:03.579Z,101293.76
2018-02-20T12:37:31.961Z,101296.91
2018-02-20T12:40:00.337Z,101295.27
2018-02-20T12:42:29.123Z,101293.09
2018-02-20T12:44:57.484Z,101299.56
2018-02-20T12:47:25.866Z,101302.09
2018-02-20T12:49:54.252Z,101305.27
2018-02-20T12:52:22.619Z,101303.14
2018-02-20T12:54:50.972Z,101293.70
2018-02-20T12:57:19.320Z,101297.98
2018-02-20T12:59:47.676Z,101294.42
2018-02-20T13:02:16.048Z,101299.80
2018-02-20T13:04:44.420Z,101303.22
2018-02-20T13:07:12.783Z,101299.73
2018-02-20T13:09:41.184Z,101294.91
2018-02-20T13:12:09.568Z,101297.64
2018-02-20T13:14:37.930Z,101306.70
2018-02-20T13:17:06.328Z,101313.34
2018-02-20T13:19:34.682Z,101306.58
2018-02-20T13:22:03.091Z,101308.31
2018-02-20T13:24:31.447Z,101295.78
2018-02-20T13:26:59.800Z,101301.22
2018-02-20T13:29:28.159Z,101302.52
2018-02-20T13:31:56.930Z,101307.58
2018-02-20T13:34:25.325Z,101289.89
2018-02-20T13:36:54.180Z,101304.73
2018-02-20T13:39:22.529Z,101298.87
2018-02-20T13:41:50.891Z,101310.84
2018-02-20T13:44:19.251Z,101302.45
2018-02-20T13:46:48.100Z,101311.72
2018-02-20T13:49:16.484Z,101309.23
2018-02-20T13:51:44.859Z,101327.02
2018-02-20T13:54:13.226Z,101317.11
2018-02-20T13:56:41.606Z,101323.70
2018-02-20T13:59:10.007Z,101331.59
2018-02-20T14:01:38.467Z,101334.52
2018-02-20T14:04:06.823Z,101328.05
2018-02-20T14:06:35.172Z,101332.21
2018-02-20T14:09:03.917Z,101332.52
2018-02-20T14:11:32.372Z,101328.11
2018-02-20T14:14:00.737Z,101322.47
2018-02-20T14:16:29.089Z,101327.61
2018-02-20T14:18:57.465Z,101327.97
2018-02-20T14:21:25.833Z,101325.63
2018-02-20T14:23:54.290Z,101316.05
2018-02-20T14:26:22.673Z,101327.56
2018-02-20T14:28:51.035Z,101316.69
2018-02-20T14:31:19.433Z,101316.05
2018-02-20T14:33:47.792Z,101317.49
2018-02-20T14:36:16.184Z,101314.20
2018-02-20T14:38:44.570Z,101314.51
2018-02-20T14:41:12.931Z,101316.41
2018-02-20T14:43:41.300Z,101316.91
2018-02-20T14:46:09.722Z,101311.68
2018-02-20T14:48:38.179Z,101313.06
2018-02-20T14:51:06.549Z,101328.09
2018-02-20T14:53:34.949Z,101325.81
2018-02-20T14:56:03.320Z,101327.97
2018-02-20T14:58:31.685Z,101328.05
2018-02-20T15:01:00.071Z,101329.61
2018-02-20T15:03:28.418Z,101334.70
2018-02-20T15:05:56.810Z,101330.95
2018-02-20T15:08:25.170Z,101333.91
2018-02-20T15:10:53.587Z,101333.74
2018-02-20T15:13:21.966Z,101329.00
2018-02-20T15:15:50.366Z,101339.35
2018-02-20T15:18:18.728Z,101331.70
2018-02-20T15:20:47.125Z,101343.62
2018-02-20T15:23:15.481Z,101338.09
2018-02-20T15:25:43.869Z,101338.42
2018-02-20T15:28:12.226Z,101340.02
2018-02-20T15:30:40.584Z,101341.25
2018-02-20T15:33:09.005Z,101347.52
2018-02-20T15:35:37.366Z,101336.28
2018-02-20T15:38:05.731Z,101352.19
2018-02-20T15:40:34.164Z,101354.06
2018-02-20T15:43:02.550Z,101353.69
2018-02-20T15:45:31.309Z,101352.31
2018-02-20T15:47:59.673Z,101358.09
2018-02-20T15:50:28.044Z,101355.67
2018-02-20T15:52:56.405Z,101359.00
2018-02-20T15:55:24.783Z,101366.44
2018-02-20T15:57:53.145Z,101368.47
2018-02-20T16:00:21.497Z,101360.10
2018-02-20T16:02:49.981Z,101363.54
2018-02-20T16:05:18.337Z,101367.50
2018-02-20T16:07:46.682Z,101368.10
2018-02-20T16:10:15.040Z,101371.67
2018-02-20T16:12:44.069Z,101380.39
2018-02-20T16:15:12.427Z,101375.47
2018-02-20T16:17:40.785Z,101378.70
2018-02-20T16:20:09.752Z,101381.80
2018-02-20T16:22:38.103Z,101374.55
2018-02-20T16:25:06.464Z,101379.16
2018-02-20T16:27:34.828Z,101395.31
2018-02-20T16:30:03.419Z,101390.09
2018-02-20T16:32:31.780Z,101390.61
2018-02-20T16:35:00.534Z,101395.67
2018-02-20T16:37:28.904Z,101407.19
2018-02-20T16:39:57.274Z,101408.52
2018-02-20T16:42:25.642Z,101407.34
2018-02-20T16:44:54.021Z,101407.80
2018-02-20T16:47:22.397Z,101410.16
2018-02-20T16:49:50.780Z,101421.20
2018-02-20T16:52:19.150Z,101410.95
2018-02-20T16:54:47.530Z,101413.36
2018-02-20T16:57:15.885Z,101416.44
2018-02-20T16:59:44.271Z,101420.22
2018-02-20T17:02:12.725Z,101427.05
2018-02-20T17:04:41.585Z,101419.49
2018-02-20T17:07:09.943Z,101425.60
2018-02-20T17:09:38.309Z,101428.17
2018-02-20T17:12:06.674Z,101439.27
2018-02-20T17:14:35.059Z,101428.78
2018-02-20T17:17:03.450Z,101427.49
2018-02-20T17:19:31.813Z,101431.59
2018-02-20T17:22:00.435Z,101438.19
2018-02-20T17:24:28.800Z,101438.16
2018-02-20T17:26:57.477Z,101437.73
2018-02-20T17:29:25.882Z,101440.89
2018-02-20T17:31:54.236Z,101438.34
2018-02-20T17:34:22.709Z,101449.54
2018-02-20T17:36:51.078Z,101449.31
2018-02-20T17:39:19.457Z,101453.87
2018-02-20T17:41:47.821Z,101462.16
2018-02-20T17:44:16.200Z,101459.02
2018-02-20T17:46:44.950Z,101457.69
2018-02-20T17:49:13.350Z,101466.12
2018-02-20T17:51:41.709Z,101457.20
2018-02-20T17:54:10.075Z,101458.98
2018-02-20T17:56:38.429Z,101458.48
2018-02-20T17:59:07.233Z,101459.61
2018-02-20T18:01:35.607Z,101459.46
2018-02-20T18:04:03.969Z,101462.00
2018-02-20T18:06:32.339Z,101462.11
2018-02-20T18:09:00.714Z,101461.46
2018-02-20T18:11:29.117Z,101467.01
2018-02-20T18:13:57.502Z,101475.45
2018-02-20T18:16:25.855Z,101470.65
2018-02-20T18:18:54.236Z,101476.77
2018-02-20T18:21:22.622Z,101481.82
2018-02-20T18:23:50.996Z,101478.84
2018-02-20T18:26:19.592Z,101483.23
2018-02-20T18:28:48.014Z,101491.54
2018-02-20T18:31:16.390Z,101491.41
2018-02-20T18:33:44.890Z,101496.02
2018-02-20T18:36:14.577Z,101503.92
2018-02-20T18:38:42.956Z,101515.52
2018-02-20T18:41:11.357Z,101510.34
2018-02-20T18:43:40.120Z,101518.88
2018-02-20T18:46:08.517Z,101514.78
2018-02-20T18:48:37.484Z,101519.88
2018-02-20T18:51:05.875Z,101515.78
2018-02-20T18:53:34.271Z,101513.57
2018-02-20T18:56:03.040Z,101513.86
2018-02-20T18:58:31.504Z,101515.68
2018-02-20T19:00:59.874Z,101520.64
2018-02-20T19:03:28.237Z,101523.61
2018-02-20T19:05:56.645Z,101521.64
2018-02-20T19:08:25.029Z,101532.00
2018-02-20T19:10:55.986Z,101529.10
2018-02-20T19:13:24.365Z,101534.05
2018-02-20T19:15:52.745Z,101541.70
2018-02-20T19:18:21.109Z,101542.48
2018-02-20T19:20:49.465Z,101541.16
2018-02-20T19:23:17.853Z,101556.02
2018-02-20T19:25:46.241Z,101545.66
2018-02-20T19:28:14.601Z,101554.22
2018-02-20T19:30:42.991Z,101552.26
2018-02-20T19:33:11.454Z,101547.54
2018-02-20T19:35:39.816Z,101549.45
2018-02-20T19:38:08.175Z,101543.06
2018-02-20T19:40:36.954Z,101545.55
2018-02-20T19:43:05.319Z,101554.71
2018-02-20T19:45:33.797Z,101555.03
2018-02-20T19:48:02.155Z,101551.16
2018-02-20T19:50:30.523Z,101549.88
2018-02-20T19:52:58.892Z,101557.31
2018-02-20T19:55:27.260Z,101555.21
2018-02-20T19:57:55.630Z,101560.28
2018-02-20T20:00:24.076Z,101557.36
2018-02-20T20:02:52.421Z,101559.52
2018-02-20T20:05:20.789Z,101561.63
2018-02-20T20:07:49.148Z,101563.55
2018-02-20T20:10:17.528Z,101553.19
2018-02-20T20:12:46.001Z,101551.81
2018-02-20T20:15:14.328Z,101557.33
2018-02-20T20:17:42.698Z,101559.04
2018-02-20T20:20:11.060Z,101560.94
2018-02-20T20:22:39.443Z,101565.80
2018-02-20T20:25:07.825Z,101574.07
2018-02-20T20:27:36.203Z,101576.78
2018-02-20T20:30:04.616Z,101584.89
2018-02-20T20:32:32.994Z,101583.34
2018-02-20T20:35:01.374Z,101583.86
2018-02-20T20:37:29.741Z,101587.28
2018-02-20T20:39:58.121Z,101588.88
2018-02-20T20:42:26.535Z,101593.25
2018-02-20T20:44:55.361Z,101588.16
2018-02-20T20:47:23.729Z,101594.06
2018-02-20T20:49:52.110Z,101588.81
2018-02-20T20:52:20.469Z,101595.41
2018-02-20T20:54:49.279Z,101596.84
2018-02-20T20:57:17.629Z,101598.08
2018-02-20T20:59:46.445Z,101598.16
2018-02-20T21:02:14.931Z,101590.44
2018-02-20T21:04:43.305Z,101596.84
2018-02-20T21:07:11.668Z,101593.84
2018-02-20T21:09:40.111Z,101593.77
2018-02-20T21:12:08.900Z,101592.28
2018-02-20T21:14:37.274Z,101592.59
2018-02-20T21:17:05.641Z,101590.63
2018-02-20T21:19:34.053Z,101593.92
2018-02-20T21:22:02.471Z,101596.37
2018-02-20T21:24:30.841Z,101604.53
2018-02-20T21:26:59.212Z,101602.98
2018-02-20T21:29:27.594Z,101608.69
2018-02-20T21:31:57.403Z,101611.23
2018-02-20T21:34:25.825Z,101606.56
2018-02-20T21:36:54.189Z,101609.02
2018-02-20T21:39:22.561Z,101606.68
2018-02-20T21:41:50.953Z,101608.59
2018-02-20T21:44:19.322Z,101602.64
2018-02-20T21:46:47.691Z,101601.97
2018-02-20T21:49:16.059Z,101600.31
2018-02-20T21:51:44.450Z,101607.09
2018-02-20T21:54:12.853Z,101607.44
2018-02-20T21:56:41.232Z,101605.41
2018-02-20T21:59:09.599Z,101607.23
2018-02-20T22:01:37.972Z,101612.72
2018-02-20T22:04:06.360Z,101612.00
2018-02-20T22:06:34.752Z,101614.81
2018-02-20T22:09:03.124Z,101621.37
2018-02-20T22:11:31.491Z,101613.96
2018-02-20T22:13:59.858Z,101619.73
2018-02-20T22:16:28.221Z,101622.39
2018-02-20T22:18:56.581Z,101624.05
2018-02-20T22:21:25.339Z,101633.37
2018-02-20T22:23:53.700Z,101632.91
2018-02-20T22:26:22.080Z,101633.02
2018-02-20T22:28:50.445Z,101649.22
2018-02-20T22:31:18.821Z,101635.75
2018-02-20T22:33:47.236Z,101634.13
2018-02-20T22:36:15.921Z,101639.85
2018-02-20T22:38:44.322Z,101640.24
2018-02-20T22:41:13.097Z,101634.04
2018-02-20T22:43:41.461Z,101639.23
2018-02-20T22:46:09.914Z,101643.37
2018-02-20T22:48:38.272Z,101640.01
2018-02-20T22:51:06.670Z,101637.95
2018-02-20T22:53:35.085Z,101640.34
2018-02-20T22:56:03.474Z,101641.83
2018-02-20T22:58:31.846Z,101645.23
2018-02-20T23:01:00.228Z,101645.83
2018-02-20T23:03:28.593Z,101647.66
2018-02-20T23:05:56.981Z,101649.44
2018-02-20T23:08:25.355Z,101651.55
2018-02-20T23:10:53.741Z,101658.13
2018-02-20T23:13:22.123Z,101655.66
2018-02-20T23:15:50.496Z,101657.95
2018-02-20T23:18:18.866Z,101653.03
2018-02-20T23:20:47.276Z,101656.47
2018-02-20T23:23:16.036Z,101659.31
2018-02-20T23:25:44.398Z,101658.28
2018-02-20T23:28:12.766Z,101659.12
2018-02-20T23:30:41.160Z,101655.30
2018-02-20T23:33:09.524Z,101660.80
2018-02-20T23:35:37.898Z,101669.25
2018-02-20T23:38:06.269Z,101670.16
2018-02-20T23:40:34.653Z,101673.04
2018-02-20T23:43:03.031Z,101674.59
2018-02-20T23:45:31.410Z,101679.17
2018-02-20T23:47:59.780Z,101684.52
2018-02-20T23:50:28.172Z,101683.42
2018-02-20T23:52:56.562Z,101683.72
2018-02-20T23:55:24.949Z,101685.21
2018-02-20T23:57:53.333Z,101686.92
